Time;durP1;ratioP1;P1;durP2;ratioP2;P2;SDS_P1;SDS_P2;PMS_P1;PMS_P2;Temp;Humidity;BMP_temperature;BMP_pressure;BME280_temperature;BME280_humidity;BME280_pressure;Samples;Min_cycle;Max_cycle;Signal;HPM_P1;HPM_P2
2021/06/10 00:01:19;;;;;;;12.50;4.97;;;20.80;99.90;;;;;;5073047;28;20592;-72
2021/06/10 00:03:46;;;;;;;5.30;4.60;;;20.70;99.90;;;;;;5072618;28;20202;-74
2021/06/10 00:06:13;;;;;;;5.05;4.45;;;20.70;99.90;;;;;;5073046;28;20241;-72
2021/06/10 00:08:39;;;;;;;4.75;4.35;;;20.80;99.90;;;;;;5072889;28;20202;-73
2021/06/10 00:11:06;;;;;;;5.80;4.15;;;20.80;99.90;;;;;;5073404;28;20209;-72
2021/06/10 00:13:32;;;;;;;5.25;4.75;;;20.70;99.90;;;;;;5072676;28;20202;-75
2021/06/10 00:15:59;;;;;;;6.53;5.35;;;20.70;99.90;;;;;;5072961;28;20210;-72
2021/06/10 00:18:26;;;;;;;7.30;3.92;;;20.60;99.90;;;;;;5072803;28;20202;-76
2021/06/10 00:20:53;;;;;;;6.18;5.68;;;20.60;99.90;;;;;;5073210;28;20217;-74
2021/06/10 00:23:20;;;;;;;4.57;4.18;;;20.60;99.90;;;;;;5072945;28;20284;-77
2021/06/10 00:25:46;;;;;;;4.53;4.22;;;20.60;99.90;;;;;;5072562;28;20233;-72
2021/06/10 00:28:13;;;;;;;5.38;4.88;;;20.40;99.90;;;;;;5072544;28;20217;-77
2021/06/10 00:30:39;;;;;;;4.95;4.43;;;20.20;99.90;;;;;;5072736;28;20206;-75
2021/06/10 00:33:06;;;;;;;4.63;4.18;;;20.00;99.90;;;;;;5072508;28;20639;-74
2021/06/10 00:35:34;;;;;;;6.22;4.93;;;20.20;99.90;;;;;;5071456;28;20588;-73
2021/06/10 00:38:02;;;;;;;5.40;4.93;;;20.20;99.90;;;;;;5072533;28;20290;-75
2021/06/10 00:40:32;;;;;;;5.10;4.47;;;20.30;99.90;;;;;;5072376;28;20263;-73
2021/06/10 00:42:59;;;;;;;7.95;3.92;;;20.40;99.90;;;;;;5072408;28;20680;-72
2021/06/10 00:45:27;;;;;;;4.30;3.92;;;20.30;99.90;;;;;;5072817;28;20264;-75
2021/06/10 00:47:54;;;;;;;4.93;4.53;;;20.20;99.90;;;;;;5072385;28;20209;-74
2021/06/10 00:50:24;;;;;;;5.82;4.40;;;20.30;99.90;;;;;;5072460;28;20213;-75
2021/06/10 00:52:51;;;;;;;4.25;3.95;;;20.20;99.90;;;;;;5072184;28;20198;-71
2021/06/10 00:55:19;;;;;;;4.85;4.35;;;20.20;99.90;;;;;;5072212;28;20268;-73
2021/06/10 00:57:45;;;;;;;7.75;4.15;;;20.10;99.90;;;;;;5071503;28;20206;-74
2021/06/10 01:00:14;;;;;;;5.40;4.07;;;20.00;99.90;;;;;;5072277;28;20210;-75
2021/06/10 01:02:41;;;;;;;5.25;4.15;;;20.00;99.90;;;;;;5071537;28;20259;-72
2021/06/10 01:05:10;;;;;;;5.40;4.30;;;20.10;99.90;;;;;;5072085;28;20264;-72
2021/06/10 01:07:47;;;;;;;5.35;4.85;;;20.10;99.90;;;;;;5071725;28;20206;-74
2021/06/10 01:10:24;;;;;;;3.92;3.63;;;20.00;99.90;;;;;;5058056;28;20205;-73
2021/06/10 01:12:57;;;;;;;3.95;3.58;;;20.10;99.90;;;;;;5071912;28;20267;-74
2021/06/10 01:15:28;;;;;;;3.97;3.67;;;20.20;99.90;;;;;;5070770;28;20217;-72
2021/06/10 01:17:55;;;;;;;4.47;3.95;;;20.10;99.90;;;;;;5069555;28;20615;-74
2021/06/10 01:20:26;;;;;;;4.30;3.90;;;20.10;99.90;;;;;;5071880;28;20206;-75
2021/06/10 01:23:05;;;;;;;5.10;3.88;;;20.10;99.90;;;;;;5071609;28;20228;-73
2021/06/10 01:25:52;;;;;;;4.32;4.00;;;20.00;99.90;;;;;;5065911;28;20237;-75
2021/06/10 01:28:25;;;;;;;6.07;4.45;;;20.10;99.90;;;;;;5071222;28;20673;-73
2021/06/10 01:30:55;;;;;;;6.38;4.18;;;20.00;99.90;;;;;;5070823;28;20828;-72
2021/06/10 01:33:25;;;;;;;8.95;3.97;;;19.90;99.90;;;;;;5071681;28;20657;-73
2021/06/10 01:35:56;;;;;;;3.75;3.22;;;20.00;99.90;;;;;;5070934;28;20206;-74
2021/06/10 01:38:25;;;;;;;6.07;5.47;;;19.90;99.90;;;;;;5071631;28;20206;-73
2021/06/10 01:40:52;;;;;;;4.03;3.63;;;19.90;99.90;;;;;;5070934;28;20202;-75
2021/06/10 01:43:20;;;;;;;4.15;3.85;;;19.80;99.90;;;;;;5071330;28;20206;-75
2021/06/10 01:45:49;;;;;;;4.32;3.92;;;19.80;99.90;;;;;;5070599;28;20237;-72
2021/06/10 01:48:18;;;;;;;5.60;4.78;;;19.80;99.90;;;;;;5071036;28;20289;-72
2021/06/10 01:50:46;;;;;;;6.70;4.60;;;19.90;99.90;;;;;;5070921;28;20206;-74
2021/06/10 01:53:14;;;;;;;4.68;3.63;;;19.80;99.90;;;;;;5070826;28;20213;-72
2021/06/10 01:55:42;;;;;;;3.65;3.35;;;19.70;99.90;;;;;;5070716;28;20236;-72
2021/06/10 01:58:09;;;;;;;4.75;3.65;;;19.60;99.90;;;;;;5070747;28;20715;-73
2021/06/10 02:00:38;;;;;;;4.57;4.18;;;19.70;99.90;;;;;;5070490;28;20205;-72
2021/06/10 02:03:06;;;;;;;6.55;4.00;;;19.70;99.90;;;;;;5071056;28;20207;-74
2021/06/10 02:05:33;;;;;;;5.20;3.97;;;19.60;99.90;;;;;;5070349;28;20724;-74
2021/06/10 02:08:01;;;;;;;4.55;4.13;;;19.50;99.90;;;;;;5070967;28;20229;-74
2021/06/10 02:10:28;;;;;;;4.85;4.28;;;19.40;99.90;;;;;;5070797;28;20202;-72
2021/06/10 02:12:56;;;;;;;4.45;4.05;;;19.30;99.90;;;;;;5071418;28;20221;-71
2021/06/10 02:15:23;;;;;;;4.25;3.88;;;19.30;99.90;;;;;;5070656;28;20217;-73
2021/06/10 02:17:51;;;;;;;4.30;3.90;;;19.30;99.90;;;;;;5070668;28;20206;-73
2021/06/10 02:20:20;;;;;;;4.28;3.88;;;19.40;99.90;;;;;;5070727;28;20213;-73
2021/06/10 02:22:46;;;;;;;7.75;4.03;;;19.30;99.90;;;;;;5070208;28;20603;-73
2021/06/10 02:25:13;;;;;;;4.35;3.53;;;19.30;99.90;;;;;;5070111;28;20724;-73
2021/06/10 02:27:40;;;;;;;4.72;3.65;;;19.30;99.90;;;;;;5070646;28;20209;-73
2021/06/10 02:30:09;;;;;;;4.43;4.00;;;19.10;99.90;;;;;;5070653;28;20206;-73
2021/06/10 02:32:36;;;;;;;6.82;5.70;;;19.20;99.90;;;;;;5070173;28;20533;-73
2021/06/10 02:35:06;;;;;;;5.25;4.75;;;19.10;99.90;;;;;;5070555;28;20206;-73
2021/06/10 02:37:34;;;;;;;4.55;4.22;;;19.10;99.90;;;;;;5069860;28;20228;-73
2021/06/10 02:40:02;;;;;;;6.97;4.63;;;19.10;99.90;;;;;;5070721;28;20198;-73
2021/06/10 02:42:29;;;;;;;7.60;4.15;;;19.20;99.90;;;;;;5070104;28;20214;-73
2021/06/10 02:44:56;;;;;;;5.22;4.60;;;19.10;99.90;;;;;;5070983;28;20199;-74
2021/06/10 02:47:24;;;;;;;4.80;4.28;;;19.10;99.90;;;;;;5070824;28;20210;-73
2021/06/10 02:49:52;;;;;;;4.72;4.13;;;19.20;99.90;;;;;;5070104;28;20567;-74
2021/06/10 02:52:21;;;;;;;5.97;4.00;;;19.10;99.90;;;;;;5070609;28;20594;-73
2021/06/10 02:54:49;;;;;;;5.03;3.97;;;19.00;99.90;;;;;;5069957;28;20202;-74
2021/06/10 02:57:19;;;;;;;6.30;3.70;;;18.90;99.90;;;;;;5070104;28;20210;-73
2021/06/10 02:59:47;;;;;;;4.30;3.90;;;18.90;99.90;;;;;;5071373;28;20201;-73
2021/06/10 03:02:14;;;;;;;6.80;4.45;;;18.90;99.90;;;;;;5074658;28;20206;-73
2021/06/10 03:04:41;;;;;;;4.18;3.88;;;18.80;99.90;;;;;;5073517;28;20672;-73
2021/06/10 03:07:10;;;;;;;4.30;3.88;;;18.70;99.90;;;;;;5074343;28;20238;-73
2021/06/10 03:09:40;;;;;;;5.68;4.22;;;18.80;99.90;;;;;;5073951;28;20233;-72
2021/06/10 03:12:08;;;;;;;4.85;3.83;;;18.80;99.90;;;;;;5074525;28;20202;-71
2021/06/10 03:14:36;;;;;;;3.97;3.47;;;18.80;99.90;;;;;;5073586;28;20202;-73
2021/06/10 03:17:03;;;;;;;4.18;3.75;;;18.80;99.90;;;;;;5074047;28;20207;-72
2021/06/10 03:19:30;;;;;;;4.95;4.55;;;18.70;99.90;;;;;;5074025;28;20206;-72
2021/06/10 03:21:57;;;;;;;5.00;3.83;;;18.70;99.90;;;;;;5073816;28;20240;-72
2021/06/10 03:24:24;;;;;;;5.80;3.85;;;18.70;99.90;;;;;;5074351;28;20255;-71
2021/06/10 03:26:54;;;;;;;5.75;3.60;;;18.70;99.90;;;;;;5073283;28;20717;-72
2021/06/10 03:29:22;;;;;;;4.68;4.30;;;18.70;99.90;;;;;;5073985;28;20665;-70
2021/06/10 03:31:49;;;;;;;4.90;4.30;;;18.60;99.90;;;;;;5073336;28;20612;-71
2021/06/10 03:34:18;;;;;;;4.65;4.30;;;18.70;99.90;;;;;;5072706;28;20217;-71
2021/06/10 03:36:45;;;;;;;4.72;4.38;;;18.60;99.90;;;;;;5075778;28;20210;-70
2021/06/10 03:39:13;;;;;;;5.30;4.85;;;18.60;99.90;;;;;;5073849;28;20198;-69
2021/06/10 03:41:41;;;;;;;5.00;4.35;;;18.60;99.90;;;;;;5073144;28;20203;-71
2021/06/10 03:44:10;;;;;;;4.97;4.50;;;18.60;99.90;;;;;;5073565;28;20647;-71
2021/06/10 03:46:40;;;;;;;4.97;4.55;;;18.50;99.90;;;;;;5073442;28;20237;-73
2021/06/10 03:49:06;;;;;;;4.57;3.60;;;18.50;99.90;;;;;;5073661;28;20210;-72
2021/06/10 03:51:33;;;;;;;4.85;4.07;;;18.30;99.90;;;;;;5072965;28;20213;-72
2021/06/10 03:53:59;;;;;;;5.13;4.60;;;18.30;99.90;;;;;;5073682;28;20206;-72
2021/06/10 03:56:26;;;;;;;5.28;4.75;;;18.20;99.90;;;;;;5073402;28;20792;-74
2021/06/10 03:58:53;;;;;;;5.30;4.32;;;18.20;99.90;;;;;;5073436;28;20210;-72
2021/06/10 04:01:21;;;;;;;4.95;4.45;;;18.30;99.90;;;;;;5073265;28;20198;-72
2021/06/10 04:03:48;;;;;;;4.85;4.32;;;18.30;99.90;;;;;;5073166;28;20223;-71
2021/06/10 04:06:16;;;;;;;5.28;4.22;;;18.30;99.90;;;;;;5073187;28;20229;-72
2021/06/10 04:08:44;;;;;;;4.93;4.25;;;18.30;99.90;;;;;;5072812;28;20213;-72
2021/06/10 04:11:11;;;;;;;5.10;4.70;;;18.20;99.90;;;;;;5071534;28;20206;-72
2021/06/10 04:13:37;;;;;;;7.90;4.22;;;18.20;99.90;;;;;;5072822;28;20225;-72
2021/06/10 04:16:04;;;;;;;5.00;4.57;;;18.20;99.90;;;;;;5073330;28;20210;-73
2021/06/10 04:18:32;;;;;;;5.35;4.85;;;18.20;99.90;;;;;;5072458;28;20209;-73
2021/06/10 04:20:59;;;;;;;8.27;5.15;;;18.10;99.90;;;;;;5072863;28;20214;-72
2021/06/10 04:23:25;;;;;;;4.88;4.35;;;18.10;99.90;;;;;;5073027;28;20661;-74
2021/06/10 04:25:52;;;;;;;6.35;4.38;;;18.20;99.90;;;;;;5072078;28;20234;-71
2021/06/10 04:28:19;;;;;;;6.25;4.47;;;18.20;99.90;;;;;;5072910;28;20601;-72
2021/06/10 04:30:45;;;;;;;4.78;4.35;;;18.20;99.90;;;;;;5072282;28;20669;-71
2021/06/10 04:33:12;;;;;;;9.57;5.40;;;18.20;99.90;;;;;;5073180;28;20210;-74
2021/06/10 04:35:40;;;;;;;6.07;5.03;;;18.10;99.90;;;;;;5072061;28;20220;-73
2021/06/10 04:38:06;;;;;;;5.95;5.30;;;18.20;99.90;;;;;;5072816;28;20217;-72
2021/06/10 04:40:33;;;;;;;6.45;4.30;;;18.30;99.90;;;;;;5071321;28;20251;-73
2021/06/10 04:42:59;;;;;;;7.10;4.72;;;18.20;99.90;;;;;;5072764;28;20206;-72
2021/06/10 04:45:27;;;;;;;5.55;4.97;;;18.30;99.90;;;;;;5072965;28;20283;-74
2021/06/10 04:47:53;;;;;;;5.43;4.55;;;18.20;99.90;;;;;;5072118;28;20289;-71
2021/06/10 04:50:20;;;;;;;5.88;4.85;;;18.20;99.90;;;;;;5072752;28;20210;-71
2021/06/10 04:52:48;;;;;;;12.13;5.72;;;18.20;99.90;;;;;;5072012;28;20706;-74
2021/06/10 04:55:15;;;;;;;7.25;4.53;;;18.10;99.90;;;;;;5072586;28;20628;-72
2021/06/10 04:57:42;;;;;;;5.65;5.15;;;18.10;99.90;;;;;;5070654;28;20598;-73
2021/06/10 05:00:09;;;;;;;5.63;5.13;;;18.10;99.90;;;;;;5072086;28;20596;-72
2021/06/10 05:02:36;;;;;;;5.63;4.95;;;18.10;99.90;;;;;;5071490;28;20259;-73
2021/06/10 05:05:03;;;;;;;6.90;5.63;;;18.10;99.90;;;;;;5071987;28;20251;-71
2021/06/10 05:07:30;;;;;;;6.75;5.75;;;18.20;99.90;;;;;;5071678;28;20238;-72
2021/06/10 05:09:58;;;;;;;7.43;5.82;;;18.20;99.90;;;;;;5071585;28;20202;-72
2021/06/10 05:12:25;;;;;;;9.75;5.68;;;18.10;99.90;;;;;;5072134;28;20269;-71
2021/06/10 05:14:52;;;;;;;9.10;5.47;;;18.00;99.90;;;;;;5071996;28;20220;-73
2021/06/10 05:17:19;;;;;;;10.93;5.95;;;18.10;99.90;;;;;;5071857;28;20210;-72
2021/06/10 05:19:45;;;;;;;7.43;5.60;;;18.10;99.90;;;;;;5071302;28;20206;-72
2021/06/10 05:22:12;;;;;;;4.53;4.13;;;18.20;99.90;;;;;;5071250;28;20214;-73
2021/06/10 05:24:40;;;;;;;6.20;5.10;;;18.20;99.90;;;;;;5070844;28;20237;-71
2021/06/10 05:27:09;;;;;;;5.53;5.00;;;18.20;99.90;;;;;;5076598;28;20287;-72
2021/06/10 05:29:36;;;;;;;5.75;5.10;;;18.20;99.90;;;;;;5080923;28;20233;-73
2021/06/10 05:32:02;;;;;;;6.30;4.10;;;18.20;99.90;;;;;;5084105;28;20212;-73
2021/06/10 05:34:29;;;;;;;9.30;5.00;;;18.10;99.90;;;;;;5078680;28;20201;-73
2021/06/10 05:36:55;;;;;;;8.23;5.15;;;18.10;99.90;;;;;;5081947;28;20205;-71
2021/06/10 05:39:22;;;;;;;4.47;4.07;;;18.20;99.90;;;;;;5081206;28;20213;-72
2021/06/10 05:41:48;;;;;;;6.38;4.65;;;18.40;99.90;;;;;;5087924;28;20198;-72
2021/06/10 05:44:16;;;;;;;6.03;4.57;;;18.40;99.90;;;;;;5083275;28;20203;-73
2021/06/10 05:46:43;;;;;;;5.05;4.60;;;18.40;99.90;;;;;;5079109;28;20229;-72
2021/06/10 05:49:09;;;;;;;5.25;4.75;;;18.40;99.90;;;;;;5070668;28;20220;-73
2021/06/10 05:51:36;;;;;;;8.15;5.72;;;18.50;99.90;;;;;;5069265;28;20677;-73
2021/06/10 05:54:02;;;;;;;5.22;4.82;;;18.70;99.90;;;;;;5071155;28;20210;-74
2021/06/10 05:56:29;;;;;;;6.68;4.38;;;18.60;99.90;;;;;;5072766;28;20198;-73
2021/06/10 05:58:56;;;;;;;6.35;4.93;;;18.60;99.90;;;;;;5079736;28;20205;-73
2021/06/10 06:01:24;;;;;;;7.25;4.65;;;18.70;99.90;;;;;;5073305;28;20234;-73
2021/06/10 06:03:50;;;;;;;8.57;4.93;;;18.70;99.90;;;;;;5070846;28;20209;-70
2021/06/10 06:06:19;;;;;;;6.75;4.50;;;18.80;99.90;;;;;;5070577;28;20275;-70
2021/06/10 06:08:46;;;;;;;7.53;4.88;;;19.00;99.90;;;;;;5070346;28;20206;-71
2021/06/10 06:11:12;;;;;;;5.18;4.68;;;19.00;99.90;;;;;;5070074;28;20233;-70
2021/06/10 06:13:47;;;;;;;6.20;4.88;;;18.90;99.90;;;;;;5070472;28;20221;-69
2021/06/10 06:16:15;;;;;;;6.97;5.65;;;19.00;99.90;;;;;;5069901;28;20214;-70
2021/06/10 06:18:43;;;;;;;7.43;4.82;;;19.00;99.90;;;;;;5070060;28;20661;-71
2021/06/10 06:21:11;;;;;;;6.22;5.63;;;19.00;99.90;;;;;;5070826;28;20207;-70
2021/06/10 06:23:39;;;;;;;8.02;4.90;;;19.20;99.90;;;;;;5069471;28;20198;-70
2021/06/10 06:26:06;;;;;;;9.55;4.90;;;19.50;99.90;;;;;;5070527;28;20237;-70
2021/06/10 06:28:32;;;;;;;5.15;4.75;;;19.50;99.90;;;;;;5070837;28;20225;-75
2021/06/10 06:30:59;;;;;;;8.02;5.40;;;19.50;99.90;;;;;;5070809;28;20209;-75
2021/06/10 06:33:25;;;;;;;5.82;5.20;;;19.60;99.90;;;;;;5073932;28;20670;-74
2021/06/10 06:35:55;;;;;;;8.40;4.68;;;19.70;99.90;;;;;;5075326;28;20627;-71
2021/06/10 06:38:21;;;;;;;5.47;4.60;;;19.90;99.90;;;;;;5073799;28;20206;-72
2021/06/10 06:40:49;;;;;;;7.03;4.60;;;19.90;99.90;;;;;;5077895;28;21007;-71
2021/06/10 06:43:15;;;;;;;7.78;5.43;;;19.90;99.90;;;;;;5074999;28;20271;-71
2021/06/10 06:45:42;;;;;;;6.85;4.00;;;20.00;99.90;;;;;;5080116;28;20276;-73
2021/06/10 06:48:09;;;;;;;9.40;4.47;;;20.10;99.90;;;;;;5067160;28;20726;-74
2021/06/10 06:50:36;;;;;;;5.80;4.97;;;20.30;99.90;;;;;;5073307;28;20267;-74
2021/06/10 06:53:04;;;;;;;6.38;4.85;;;20.30;99.90;;;;;;5076642;28;20202;-77
2021/06/10 06:55:31;;;;;;;4.90;4.40;;;20.30;99.90;;;;;;5080516;28;20206;-73
2021/06/10 06:57:57;;;;;;;6.57;4.63;;;20.40;99.90;;;;;;5073834;28;20251;-73
2021/06/10 07:00:24;;;;;;;6.30;5.03;;;20.50;99.90;;;;;;5077491;28;20205;-76
2021/06/10 07:02:51;;;;;;;4.72;4.13;;;20.60;99.90;;;;;;5071380;28;20197;-71
2021/06/10 07:05:18;;;;;;;5.10;4.40;;;20.50;99.90;;;;;;5075241;28;20213;-73
2021/06/10 07:07:44;;;;;;;5.30;4.30;;;20.60;99.90;;;;;;5074633;28;20205;-73
2021/06/10 07:10:13;;;;;;;4.65;3.90;;;20.70;99.90;;;;;;5075442;28;20666;-73
2021/06/10 07:12:39;;;;;;;6.63;4.82;;;20.80;99.90;;;;;;5080109;28;20202;-73
2021/06/10 07:15:07;;;;;;;7.32;4.43;;;20.90;99.90;;;;;;5077095;28;20214;-73
2021/06/10 07:17:33;;;;;;;5.80;5.15;;;21.10;99.90;;;;;;5080417;28;20445;-74
2021/06/10 07:20:01;;;;;;;5.25;4.30;;;21.20;99.90;;;;;;5077350;28;20613;-72
2021/06/10 07:22:30;;;;;;;7.38;4.72;;;21.20;99.90;;;;;;5079896;28;20255;-74
2021/06/10 07:24:56;;;;;;;4.30;3.90;;;21.30;99.90;;;;;;5074156;28;20228;-73
2021/06/10 07:27:25;;;;;;;6.22;3.28;;;21.50;99.90;;;;;;5069542;28;20230;-74
2021/06/10 07:29:53;;;;;;;4.90;4.28;;;21.60;99.90;;;;;;5070365;28;20296;-72
2021/06/10 07:32:20;;;;;;;4.50;4.10;;;22.10;99.90;;;;;;5069963;28;20214;-72
2021/06/10 07:34:46;;;;;;;8.52;3.97;;;22.40;99.90;;;;;;5070111;28;20206;-73
2021/06/10 07:37:13;;;;;;;7.10;4.28;;;22.10;99.90;;;;;;5070007;28;20574;-73
2021/06/10 07:39:39;;;;;;;4.88;4.43;;;21.90;99.90;;;;;;5069610;28;20203;-74
2021/06/10 07:42:07;;;;;;;6.00;4.22;;;22.60;99.90;;;;;;5070195;28;20206;-73
2021/06/10 07:44:36;;;;;;;4.45;3.70;;;26.00;99.90;;;;;;5069349;28;20206;-73
2021/06/10 07:47:02;;;;;;;5.32;3.65;;;26.20;99.90;;;;;;5072024;28;20272;-72
2021/06/10 07:49:29;;;;;;;5.55;3.88;;;25.90;99.90;;;;;;5075242;28;20203;-74
2021/06/10 07:51:56;;;;;;;5.57;4.15;;;24.80;99.90;;;;;;5078306;28;20210;-73
2021/06/10 07:54:23;;;;;;;4.18;3.80;;;24.30;99.90;;;;;;5080398;28;20217;-72
2021/06/10 07:56:49;;;;;;;3.90;3.30;;;25.70;99.90;;;;;;5079958;28;20198;-74
2021/06/10 07:59:22;;;;;;;6.30;3.50;;;25.60;99.90;;;;;;5078639;28;20207;-73
2021/06/10 08:01:51;;;;;;;6.30;3.80;;;25.60;99.90;;;;;;5073226;28;20255;-74
2021/06/10 08:04:19;;;;;;;4.10;3.70;;;26.00;99.90;;;;;;5072287;28;20209;-74
2021/06/10 08:06:45;;;;;;;4.28;3.13;;;25.40;99.90;;;;;;5065754;28;20275;-73
2021/06/10 08:09:12;;;;;;;3.22;2.95;;;25.40;99.90;;;;;;5072020;28;20214;-72
2021/06/10 08:11:38;;;;;;;4.93;4.20;;;25.40;99.90;;;;;;5071474;28;20202;-73
2021/06/10 08:14:05;;;;;;;7.53;3.53;;;25.20;99.90;;;;;;5072453;28;20727;-73
2021/06/10 08:16:31;;;;;;;3.65;3.35;;;25.70;99.90;;;;;;5072464;28;20210;-73
2021/06/10 08:18:59;;;;;;;7.28;3.28;;;27.40;99.90;;;;;;5072904;28;20202;-85
2021/06/10 08:21:26;;;;;;;4.95;3.50;;;25.50;99.90;;;;;;5073456;28;20252;-78
2021/06/10 08:23:52;;;;;;;4.22;2.80;;;24.80;99.90;;;;;;5073215;28;20205;-79
2021/06/10 08:26:19;;;;;;;4.38;3.97;;;24.50;99.90;;;;;;5071883;28;20234;-81
2021/06/10 08:28:45;;;;;;;6.18;3.45;;;24.30;99.90;;;;;;5071902;28;20207;-76
2021/06/10 08:31:12;;;;;;;5.35;3.53;;;24.20;99.90;;;;;;5072175;28;20206;-73
2021/06/10 08:33:39;;;;;;;3.67;3.38;;;24.10;99.90;;;;;;5072089;28;20207;-74
2021/06/10 08:36:07;;;;;;;4.18;3.78;;;24.20;99.90;;;;;;5071055;28;20214;-74
2021/06/10 08:38:34;;;;;;;3.75;3.42;;;24.50;99.90;;;;;;5065148;28;20671;-73
2021/06/10 08:41:01;;;;;;;3.90;3.60;;;24.70;99.90;;;;;;5075799;28;20214;-74
2021/06/10 08:43:27;;;;;;;3.88;3.58;;;24.90;99.90;;;;;;5070086;28;20211;-71
2021/06/10 08:46:00;;;;;;;4.22;3.83;;;24.90;99.90;;;;;;5081593;28;20772;-72
2021/06/10 08:48:31;;;;;;;5.55;3.88;;;25.00;99.90;;;;;;5076944;28;20198;-72
2021/06/10 08:50:58;;;;;;;5.63;4.20;;;25.90;99.90;;;;;;5072631;28;20292;-72
2021/06/10 08:53:26;;;;;;;6.25;4.05;;;25.70;99.90;;;;;;5073817;28;20202;-77
2021/06/10 08:55:55;;;;;;;3.60;3.30;;;25.90;99.90;;;;;;5079478;28;20210;-76
2021/06/10 08:58:23;;;;;;;4.70;3.95;;;26.30;99.90;;;;;;5075514;28;20214;-76
2021/06/10 09:00:49;;;;;;;3.72;3.42;;;28.30;99.90;;;;;;5075907;28;20256;-74
2021/06/10 09:03:22;;;;;;;5.63;3.10;;;27.80;99.90;;;;;;5074057;28;20561;-72
2021/06/10 09:06:06;;;;;;;5.35;3.90;;;27.50;99.90;;;;;;5070923;28;20312;-75
2021/06/10 09:08:34;;;;;;;4.15;3.05;;;28.10;99.90;;;;;;5074650;28;20202;-71
2021/06/10 09:11:07;;;;;;;7.18;3.50;;;28.60;99.90;;;;;;5065306;28;20217;-76
2021/06/10 09:13:39;;;;;;;3.65;3.35;;;28.60;99.90;;;;;;5069556;28;21057;-76
2021/06/10 09:16:25;;;;;;;3.85;3.55;;;29.40;99.90;;;;;;5071853;28;20221;-77
2021/06/10 09:18:54;;;;;;;12.68;5.10;;;29.00;99.90;;;;;;5071858;28;20202;-71
2021/06/10 09:21:29;;;;;;;4.50;3.47;;;28.00;99.90;;;;;;5071281;28;20264;-73
2021/06/10 09:24:14;;;;;;;3.70;3.40;;;27.90;99.90;;;;;;5071125;28;20213;-75
2021/06/10 09:26:40;;;;;;;5.88;3.22;;;27.50;99.90;;;;;;5070319;28;20226;-73
2021/06/10 09:29:07;;;;;;;4.22;3.85;;;27.90;99.90;;;;;;5070576;28;20677;-75
2021/06/10 09:31:35;;;;;;;4.25;3.47;;;29.30;99.90;;;;;;5071222;28;20214;-74
2021/06/10 09:34:07;;;;;;;3.35;3.05;;;28.60;99.90;;;;;;5071704;28;20202;-73
2021/06/10 09:36:40;;;;;;;4.05;3.67;;;27.70;99.90;;;;;;5070301;28;20202;-73
2021/06/10 09:39:13;;;;;;;4.45;4.03;;;27.90;99.90;;;;;;5067739;28;20624;-74
2021/06/10 09:42:04;;;;;;;12.10;3.60;;;27.90;99.90;;;;;;5070782;28;20198;-73
2021/06/10 09:44:38;;;;;;;5.60;3.97;;;27.70;99.90;;;;;;5061347;28;20198;-74
2021/06/10 09:47:05;;;;;;;14.73;5.10;;;28.00;99.90;;;;;;5071220;28;20238;-72
2021/06/10 09:49:32;;;;;;;4.57;3.55;;;27.90;99.90;;;;;;5071702;28;20674;-76
2021/06/10 09:51:58;;;;;;;4.07;3.67;;;28.50;99.90;;;;;;5065932;28;20220;-71
2021/06/10 09:54:47;;;;;;;3.53;3.28;;;30.20;99.90;;;;;;5073631;28;20688;-69
2021/06/10 09:57:14;;;;;;;3.05;2.83;;;30.80;99.90;;;;;;5074054;28;20209;-69
2021/06/10 09:59:45;;;;;;;4.18;3.17;;;31.50;99.90;;;;;;5071484;28;20206;-71
2021/06/10 10:02:16;;;;;;;5.53;3.45;;;32.30;99.90;;;;;;5070149;28;20255;-72
2021/06/10 10:05:03;;;;;;;3.20;3.00;;;32.50;99.90;;;;;;5069108;28;20208;-70
2021/06/10 10:07:31;;;;;;;3.17;2.88;;;33.10;99.90;;;;;;5070303;28;20225;-71
2021/06/10 10:10:01;;;;;;;3.15;2.95;;;31.50;99.90;;;;;;5070488;28;20205;-74
2021/06/10 10:12:29;;;;;;;4.05;3.72;;;32.20;99.90;;;;;;5070387;28;20209;-70
2021/06/10 10:14:58;;;;;;;3.15;2.85;;;35.70;99.90;;;;;;5069891;28;20201;-69
2021/06/10 10:17:26;;;;;;;3.17;2.88;;;37.20;99.90;;;;;;5070162;28;20217;-71
2021/06/10 10:19:54;;;;;;;3.88;3.58;;;38.80;99.90;;;;;;5069467;28;20237;-73
2021/06/10 10:22:20;;;;;;;3.35;3.10;;;38.00;99.90;;;;;;5069711;28;20640;-65
2021/06/10 10:24:47;;;;;;;4.05;3.33;;;37.70;99.90;;;;;;5067910;28;20206;-72
2021/06/10 10:27:15;;;;;;;3.33;3.05;;;38.90;99.90;;;;;;5072857;28;20261;-72
2021/06/10 10:29:44;;;;;;;2.95;2.67;;;39.30;99.90;;;;;;5068801;28;20803;-70
2021/06/10 10:32:20;;;;;;;3.67;3.17;;;39.20;99.90;;;;;;5069843;28;20202;-72
2021/06/10 10:34:46;;;;;;;2.95;2.75;;;37.60;99.90;;;;;;5068768;28;20684;-69
2021/06/10 10:37:24;;;;;;;2.53;2.33;;;33.40;99.90;;;;;;5068158;28;20213;-70
2021/06/10 10:39:53;;;;;;;2.88;2.58;;;30.60;99.90;;;;;;5068484;28;20668;-69
2021/06/10 10:42:42;;;;;;;2.85;2.65;;;29.10;99.90;;;;;;5070223;28;20205;-67
2021/06/10 10:45:18;;;;;;;2.97;2.78;;;28.50;99.90;;;;;;5065034;28;20208;-70
2021/06/10 10:47:48;;;;;;;3.35;3.05;;;28.50;99.90;;;;;;5069629;28;20639;-69
2021/06/10 10:50:18;;;;;;;5.53;3.05;;;28.70;99.90;;;;;;5069922;28;20605;-70
2021/06/10 10:52:56;;;;;;;2.83;2.60;;;28.00;99.90;;;;;;5069880;28;20205;-69
2021/06/10 10:55:30;;;;;;;3.90;2.75;;;28.30;99.90;;;;;;5069488;28;20697;-70
2021/06/10 10:58:03;;;;;;;3.50;2.88;;;28.50;99.90;;;;;;5069747;28;20255;-71
2021/06/10 11:00:53;;;;;;;4.03;2.60;;;28.50;99.90;;;;;;5069772;28;20206;-69
2021/06/10 11:03:25;;;;;;;2.53;2.30;;;28.40;99.90;;;;;;5068766;28;20206;-70
2021/06/10 11:05:52;;;;;;;2.85;2.30;;;28.60;99.90;;;;;;5069688;28;20203;-68
2021/06/10 11:08:20;;;;;;;4.72;2.55;;;28.30;99.90;;;;;;5069790;28;20739;-69
2021/06/10 11:11:03;;;;;;;2.45;2.25;;;28.30;99.90;;;;;;5069168;28;20669;-70
2021/06/10 11:13:32;;;;;;;3.30;1.92;;;28.40;99.90;;;;;;5069438;28;20205;-70
2021/06/10 11:16:04;;;;;;;3.17;2.33;;;28.50;99.90;;;;;;5070103;28;20262;-70
2021/06/10 11:18:51;;;;;;;4.25;2.28;;;28.60;99.90;;;;;;5069427;28;20209;-70
2021/06/10 11:21:50;;;;;;;4.28;2.08;;;28.70;99.90;;;;;;5068542;28;20222;-69
2021/06/10 11:24:21;;;;;;;3.15;2.30;;;28.50;99.90;;;;;;5072812;28;20206;-70
2021/06/10 11:26:50;;;;;;;4.78;2.30;;;28.40;99.90;;;;;;5073996;28;20264;-70
2021/06/10 11:29:18;;;;;;;3.38;3.08;;;28.40;99.90;;;;;;5073411;28;20218;-70
2021/06/10 11:32:27;;;;;;;1.88;1.60;;;28.50;99.90;;;;;;5073417;28;20217;-69
2021/06/10 11:34:55;;;;;;;2.20;2.10;;;28.50;99.90;;;;;;5069899;28;20255;-69
2021/06/10 11:37:24;;;;;;;4.72;3.13;;;28.60;99.90;;;;;;5073305;28;20210;-69
2021/06/10 11:39:52;;;;;;;3.60;2.58;;;28.90;99.90;;;;;;5073638;28;20214;-70
2021/06/10 11:42:22;;;;;;;2.80;2.60;;;28.90;99.90;;;;;;5073308;28;20206;-69
2021/06/10 11:44:52;;;;;;;6.13;2.55;;;28.70;99.90;;;;;;5073444;28;20302;-70
2021/06/10 11:47:34;;;;;;;3.03;2.42;;;28.90;99.90;;;;;;5073321;28;20321;-69
2021/06/10 11:50:00;;;;;;;5.82;5.32;;;28.90;99.90;;;;;;5071032;28;20574;-70
2021/06/10 11:52:51;;;;;;;5.78;2.28;;;28.80;99.90;;;;;;5072555;28;20240;-70
2021/06/10 11:55:18;;;;;;;1.80;1.70;;;28.70;99.90;;;;;;5073282;28;20206;-69
2021/06/10 11:57:51;;;;;;;3.05;2.38;;;28.70;99.90;;;;;;5072527;28;20213;-70
2021/06/10 12:00:25;;;;;;;2.53;2.33;;;28.90;99.90;;;;;;5072320;28;20206;-70
2021/06/10 12:02:55;;;;;;;2.90;2.53;;;28.70;99.90;;;;;;5072999;28;20264;-71
2021/06/10 12:05:21;;;;;;;3.80;2.53;;;28.50;99.90;;;;;;5072480;28;20608;-68
2021/06/10 12:07:48;;;;;;;2.97;2.22;;;28.60;99.90;;;;;;5073067;28;20251;-69
2021/06/10 12:10:18;;;;;;;2.25;2.08;;;28.80;99.90;;;;;;5073213;28;20202;-69
2021/06/10 12:12:47;;;;;;;1.92;1.83;;;29.10;99.90;;;;;;5073006;28;20210;-70
2021/06/10 12:15:36;;;;;;;2.60;2.40;;;29.00;99.90;;;;;;5072852;28;20229;-69
2021/06/10 12:18:05;;;;;;;4.82;2.72;;;29.00;99.90;;;;;;5072487;28;20613;-69
2021/06/10 12:20:33;;;;;;;2.42;1.83;;;28.70;99.90;;;;;;5071624;28;20630;-70
2021/06/10 12:23:03;;;;;;;2.40;2.05;;;28.80;99.90;;;;;;5072560;28;20608;-69
2021/06/10 12:25:32;;;;;;;2.88;2.47;;;28.50;99.90;;;;;;5068771;28;20202;-70
2021/06/10 12:28:00;;;;;;;2.65;2.30;;;28.80;99.90;;;;;;5072510;28;20252;-70
2021/06/10 12:30:33;;;;;;;2.45;2.25;;;29.00;99.90;;;;;;5072244;28;20209;-68
2021/06/10 12:33:14;;;;;;;1.98;1.77;;;28.90;99.90;;;;;;5070636;28;20213;-71
2021/06/10 12:35:42;;;;;;;2.53;2.10;;;29.00;99.90;;;;;;5071013;28;20213;-70
2021/06/10 12:38:09;;;;;;;2.55;1.98;;;28.90;99.90;;;;;;5072747;28;20213;-70
2021/06/10 12:40:39;;;;;;;2.65;1.95;;;29.00;99.90;;;;;;5066082;28;20296;-72
2021/06/10 12:43:11;;;;;;;4.85;2.28;;;29.10;99.90;;;;;;5072204;28;20202;-74
2021/06/10 12:45:39;;;;;;;3.15;2.33;;;29.60;99.90;;;;;;5068084;28;20213;-73
2021/06/10 12:48:26;;;;;;;2.20;2.00;;;29.50;99.90;;;;;;5072639;28;20728;-74
2021/06/10 12:51:21;;;;;;;5.78;2.75;;;29.10;99.90;;;;;;5074131;28;20210;-74
2021/06/10 12:54:00;;;;;;;2.55;1.90;;;29.30;99.90;;;;;;5069547;28;20585;-72
2021/06/10 12:56:52;;;;;;;2.50;2.30;;;28.90;99.90;;;;;;5069782;28;20609;-72